x

Port Stanley (45132) Wave Buoy

10:00pm - Wed 28th Sep 2016 All times are CDT. -5 hours from GMT.

  • Sig Wave height 3.9ft
  • Peak Period 5s
  • Wind
    25mph, 29mph gusts
  • Sea Temp 71°f
  • Air Temp 70°f
  • Sea Pressure 1016.3mb
  • Port Stanley
  • Port Stanley

More Historic Weather Station data

Upgrade to MSW Pro to gain access to the past 30 days of data for over 8000 Wavebouys and Weather Stations around the globe.

Join Pro

Comparision Forecast

View Surf forecast
   
Wed 09/28 10:00pm 4ft 5s 25 29 mph 1016.3mb 71f 70f
9:00pm 3.5ft 5s 25 31 mph 1016mb 71f 69f
8:00pm 1.6ft 4s 18 25 mph 1015.8mb 71f 67f
7:00pm 2ft 4s 13 16 mph 1015.5mb 71f 67f
6:00pm 2.5ft 4s 7 18 mph 1015.8mb 71f 64f
5:00pm 3ft 4s 25 31 mph 1014.8mb 71f 62f
4:00pm 2.5ft 4s 16 20 mph 1013.9mb 71f 70f
3:00pm 2.5ft 4s 16 18 mph 1013.9mb 71f 70f
2:00pm 2.5ft 4s 13 16 mph 1014.1mb 71f 69f
1:00pm 3ft 5s 13 16 mph 1013.8mb 71f 69f
12:00pm 3.5ft 5s 13 16 mph 1013.8mb 71f 67f
11:00am 3.5ft 5s 18 22 mph 1013.2mb 71f 68f
10:00am 3.5ft 4s 20 25 mph 1013mb 71f 67f
9:00am 3ft 4s 18 22 mph 1012.6mb 71f 67f
8:00am 2.5ft 4s 18 20 mph 1012mb 71f 65f
7:00am 2.5ft 5s 13 18 mph 1011.6mb 71f 66f
6:00am 2ft 4s 16 20 mph 1011.1mb 71f 66f
5:00am 2ft 4s 13 18 mph 1010.6mb 71f 68f
3:00am 1.6ft 5s 13 18 mph 1010mb 71f 69f
2:00am 1.6ft 5s 16 18 mph 1010.1mb 71f 68f
1:00am 1.6ft 5s 13 16 mph 1009.9mb 71f 69f
12:00am 1.6ft 5s 2 4 mph 1009.9mb 71f 69f
Tue 09/27 11:00pm 2.5ft 5s 4 7 mph 1010mb 71f 69f
10:00pm 2.5ft 6s 7
mph
1009.9mb 71f 69f
9:00pm 3.5ft 6s 11 13 mph 1009.4mb 71f 69f
8:00pm 4ft 6s 16 18 mph 1008.8mb 71f 69f
7:00pm 4.5ft 6s 20 25 mph 1008.2mb 71f 69f
6:00pm 5ft 6s 20 27 mph 1007.8mb 71f 69f
5:00pm 6ft 6s 22 29 mph 1007.1mb 71f 69f
4:00pm 6.5ft 7s 27 34 mph 1006.8mb 71f 69f
3:00pm 6.5ft 6s 25 31 mph 1006.9mb 71f 68f
2:00pm 6.5ft 7s 27 34 mph 1007mb 71f 68f
1:00pm 6ft 7s 27 36 mph 1007.2mb 71f 67f
12:00pm 6ft 6s 27 34 mph 1007.3mb 71f 67f
11:00am 6ft 6s 27 31 mph 1007.8mb 71f 66f
10:00am 6ft 6s 27 31 mph 1008.2mb 71f 66f
9:00am 7ft 6s 27 29 mph 1008.5mb 71f 66f
8:00am 6ft 6s 29 36 mph 1008.5mb 71f 66f
7:00am 5ft 6s 27 34 mph 1008.5mb 71f 67f
6:00am 5ft 6s 27 34 mph 1008.7mb 71f 67f
5:00am 5ft 5s 27 34 mph 1009.1mb 71f 67f
4:00am 4.5ft 5s 25 34 mph 1009.3mb 71f 67f
3:00am 4.5ft 5s 25 34 mph 1009.8mb 71f 67f
2:00am 4.5ft 5s 20 25 mph 1010.5mb 71f 66f
1:00am 4ft 6s 25 29 mph 1010.9mb 71f 67f
12:00am 3.5ft 6s 27 34 mph 1011mb 71f 67f
Mon 09/26 11:00pm 3.5ft 6s 20 25 mph 1011.6mb 71f 66f
10:00pm 4ft 5s 22 27 mph 1012mb 71f 67f
9:00pm 4.5ft 6s 22 27 mph 1012.3mb 71f 68f
8:00pm 4ft 5s 25 34 mph 1012.2mb 71f 68f
7:00pm 3.5ft 5s 20 25 mph 1011.9mb 71f 67f
6:00pm 3.5ft 5s 18 25 mph 1011.7mb 71f 67f
5:00pm 3.5ft 5s 20 25 mph 1011.2mb 72f 66f
4:00pm 3ft 5s 18 22 mph 1011mb 72f 66f
3:00pm 3ft 4s 18 22 mph 1011.2mb 72f 65f
2:00pm 3ft 4s 22 27 mph 1010.9mb 72f 67f
1:00pm 2.5ft 5s 18 25 mph 1011.3mb 72f 66f
12:00pm 3ft 5s 16 20 mph 1011.2mb 72f 67f
11:00am 3.5ft 5s 7 9 mph 1011.4mb 72f 65f
10:00am 4.5ft 5s 22 27 mph 1012.1mb 72f 66f
9:00am 4.5ft 5s 27 31 mph 1011.1mb 72f 66f
8:00am 4ft 5s 22 25 mph 1010.5mb 72f 65f
7:00am 4.5ft 5s 18 22 mph 1011.7mb 72f 65f
6:00am  -   -  18
mph
1012.2mb - 67f
5:00am 4ft 5s 22 27 mph 1012mb 72f 69f
4:00am 3.5ft 4s 22 25 mph 1012.4mb 72f 69f
3:00am 2.5ft 4s 20 25 mph 1013.5mb 72f 69f
2:00am 2.5ft 4s 20 22 mph 1014.6mb 72f 69f
1:00am 3ft 5s 18 20 mph 1015.7mb 72f 69f
12:00am 3ft 5s 18 20 mph 1016.3mb 72f 69f
Sun 09/25 11:00pm 3ft 4s 18 22 mph 1016.9mb 72f 69f
10:00pm 2.5ft 4s 20 25 mph 1017.2mb 72f 68f
9:00pm 2.5ft 4s 20 25 mph 1018.1mb 72f 68f
8:00pm 2ft 4s 18 22 mph 1018.5mb 72f 67f
7:00pm 2ft 4s 18 22 mph 1018.7mb 73f 67f
6:00pm 2ft 4s 18 20 mph 1019mb 73f 67f
5:00pm 1.6ft 4s 16 18 mph 1019.9mb 73f 65f
4:00pm 1.6ft 4s 13 18 mph 1020.3mb 73f 65f
3:00pm 1.6ft 4s 13 18 mph 1021.2mb 73f 64f
2:00pm 1.6ft 4s 13 18 mph 1021.7mb 73f 64f
1:00pm 1.6ft 4s 13 20 mph 1022.2mb 73f 64f
12:00pm 1.6ft 4s 13 18 mph 1022.7mb 73f 64f
11:00am 2ft 4s 13 16 mph 1022.9mb 73f 63f
10:00am 2ft 4s 13 18 mph 1023.2mb 73f 64f
9:00am 2ft 4s 13 18 mph 1023.3mb 73f 63f
7:00am 2ft 4s 13 18 mph 1023.3mb 72f 62f
6:00am 2.5ft 4s 13 18 mph 1022.9mb 72f 63f
5:00am 2.5ft 4s 16 20 mph 1022.7mb 72f 62f